sensor_id;sensor_type;location;lat;lon;timestamp;P1;durP1;ratioP1;P2;durP2;ratioP2
6947;SDS011;3513;47.664;9.162;2022-09-27T00:01:09;2.20;;;2.00;;
6947;SDS011;3513;47.664;9.162;2022-09-27T00:03:36;2.33;;;1.87;;
6947;SDS011;3513;47.664;9.162;2022-09-27T00:08:33;2.07;;;1.97;;
6947;SDS011;3513;47.664;9.162;2022-09-27T00:11:00;2.53;;;2.00;;
6947;SDS011;3513;47.664;9.162;2022-09-27T00:13:27;2.97;;;2.37;;
6947;SDS011;3513;47.664;9.162;2022-09-27T00:15:57;2.70;;;2.50;;
6947;SDS011;3513;47.664;9.162;2022-09-27T00:18:24;5.60;;;2.47;;
6947;SDS011;3513;47.664;9.162;2022-09-27T00:20:50;2.50;;;1.93;;
6947;SDS011;3513;47.664;9.162;2022-09-27T00:23:16;2.70;;;2.30;;
6947;SDS011;3513;47.664;9.162;2022-09-27T00:25:52;3.13;;;2.13;;
6947;SDS011;3513;47.664;9.162;2022-09-27T00:28:22;3.20;;;1.70;;
6947;SDS011;3513;47.664;9.162;2022-09-27T00:30:49;6.10;;;2.37;;
6947;SDS011;3513;47.664;9.162;2022-09-27T00:33:15;2.60;;;2.10;;
6947;SDS011;3513;47.664;9.162;2022-09-27T00:35:41;2.83;;;1.70;;
6947;SDS011;3513;47.664;9.162;2022-09-27T00:38:06;6.30;;;1.90;;
6947;SDS011;3513;47.664;9.162;2022-09-27T00:40:32;2.17;;;1.90;;
6947;SDS011;3513;47.664;9.162;2022-09-27T00:42:58;1.80;;;1.70;;
6947;SDS011;3513;47.664;9.162;2022-09-27T00:45:24;3.00;;;2.00;;
6947;SDS011;3513;47.664;9.162;2022-09-27T00:47:51;6.83;;;1.97;;
6947;SDS011;3513;47.664;9.162;2022-09-27T00:50:27;5.53;;;1.93;;
6947;SDS011;3513;47.664;9.162;2022-09-27T00:53:09;3.30;;;1.67;;
6947;SDS011;3513;47.664;9.162;2022-09-27T00:55:47;5.97;;;1.77;;
6947;SDS011;3513;47.664;9.162;2022-09-27T00:58:17;2.90;;;1.97;;
6947;SDS011;3513;47.664;9.162;2022-09-27T01:00:44;11.53;;;2.13;;
6947;SDS011;3513;47.664;9.162;2022-09-27T01:03:18;2.03;;;1.57;;
6947;SDS011;3513;47.664;9.162;2022-09-27T01:05:50;3.23;;;2.00;;
6947;SDS011;3513;47.664;9.162;2022-09-27T01:08:17;3.23;;;1.90;;
6947;SDS011;3513;47.664;9.162;2022-09-27T01:10:49;2.37;;;2.17;;
6947;SDS011;3513;47.664;9.162;2022-09-27T01:13:43;1.80;;;1.70;;
6947;SDS011;3513;47.664;9.162;2022-09-27T01:16:24;4.00;;;2.30;;
6947;SDS011;3513;47.664;9.162;2022-09-27T01:19:08;3.90;;;1.80;;
6947;SDS011;3513;47.664;9.162;2022-09-27T01:21:59;9.30;;;2.37;;
6947;SDS011;3513;47.664;9.162;2022-09-27T01:27:27;3.10;;;2.40;;
6947;SDS011;3513;47.664;9.162;2022-09-27T01:32:43;4.83;;;1.97;;
6947;SDS011;3513;47.664;9.162;2022-09-27T01:43:22;7.20;;;2.20;;
6947;SDS011;3513;47.664;9.162;2022-09-27T01:45:55;2.60;;;1.83;;
6947;SDS011;3513;47.664;9.162;2022-09-27T01:48:27;2.70;;;1.90;;
6947;SDS011;3513;47.664;9.162;2022-09-27T01:51:06;3.50;;;2.40;;
6947;SDS011;3513;47.664;9.162;2022-09-27T01:53:45;2.50;;;2.23;;
6947;SDS011;3513;47.664;9.162;2022-09-27T01:56:18;5.90;;;2.60;;
6947;SDS011;3513;47.664;9.162;2022-09-27T01:59:02;4.73;;;2.10;;
6947;SDS011;3513;47.664;9.162;2022-09-27T02:01:35;3.83;;;3.10;;
6947;SDS011;3513;47.664;9.162;2022-09-27T02:04:03;3.10;;;2.77;;
6947;SDS011;3513;47.664;9.162;2022-09-27T02:06:33;2.80;;;2.50;;
6947;SDS011;3513;47.664;9.162;2022-09-27T02:09:07;7.90;;;3.07;;
6947;SDS011;3513;47.664;9.162;2022-09-27T02:11:37;4.20;;;2.37;;
6947;SDS011;3513;47.664;9.162;2022-09-27T02:14:16;3.57;;;2.50;;
6947;SDS011;3513;47.664;9.162;2022-09-27T02:16:50;4.23;;;2.60;;
6947;SDS011;3513;47.664;9.162;2022-09-27T02:24:56;3.53;;;2.03;;
6947;SDS011;3513;47.664;9.162;2022-09-27T02:27:36;2.00;;;1.90;;
6947;SDS011;3513;47.664;9.162;2022-09-27T02:30:11;3.20;;;2.20;;
6947;SDS011;3513;47.664;9.162;2022-09-27T02:32:38;7.47;;;1.83;;
6947;SDS011;3513;47.664;9.162;2022-09-27T02:35:16;4.03;;;1.50;;
6947;SDS011;3513;47.664;9.162;2022-09-27T02:37:46;4.10;;;1.00;;
6947;SDS011;3513;47.664;9.162;2022-09-27T02:40:11;1.03;;;0.93;;
6947;SDS011;3513;47.664;9.162;2022-09-27T02:42:38;2.20;;;1.20;;
6947;SDS011;3513;47.664;9.162;2022-09-27T02:45:06;0.93;;;0.80;;
6947;SDS011;3513;47.664;9.162;2022-09-27T02:55:59;0.93;;;0.83;;
6947;SDS011;3513;47.664;9.162;2022-09-27T03:04:03;1.30;;;0.70;;
6947;SDS011;3513;47.664;9.162;2022-09-27T03:06:32;5.73;;;1.40;;
6947;SDS011;3513;47.664;9.162;2022-09-27T03:09:00;7.93;;;1.17;;
6947;SDS011;3513;47.664;9.162;2022-09-27T03:11:25;6.87;;;1.63;;
6947;SDS011;3513;47.664;9.162;2022-09-27T03:13:51;1.20;;;0.83;;
6947;SDS011;3513;47.664;9.162;2022-09-27T03:16:17;5.70;;;1.20;;
6947;SDS011;3513;47.664;9.162;2022-09-27T03:18:43;1.53;;;1.00;;
6947;SDS011;3513;47.664;9.162;2022-09-27T03:21:08;0.80;;;0.80;;
6947;SDS011;3513;47.664;9.162;2022-09-27T03:23:34;5.90;;;1.00;;
6947;SDS011;3513;47.664;9.162;2022-09-27T03:26:00;1.13;;;1.00;;
6947;SDS011;3513;47.664;9.162;2022-09-27T03:28:25;1.10;;;0.93;;
6947;SDS011;3513;47.664;9.162;2022-09-27T03:30:53;3.80;;;0.90;;
6947;SDS011;3513;47.664;9.162;2022-09-27T03:33:19;6.10;;;1.00;;
6947;SDS011;3513;47.664;9.162;2022-09-27T03:35:45;3.83;;;0.80;;
6947;SDS011;3513;47.664;9.162;2022-09-27T03:38:10;4.90;;;1.30;;
6947;SDS011;3513;47.664;9.162;2022-09-27T03:40:36;8.30;;;1.00;;
6947;SDS011;3513;47.664;9.162;2022-09-27T03:43:02;4.50;;;0.93;;
6947;SDS011;3513;47.664;9.162;2022-09-27T03:45:28;1.00;;;0.70;;
6947;SDS011;3513;47.664;9.162;2022-09-27T03:47:53;8.53;;;1.23;;
6947;SDS011;3513;47.664;9.162;2022-09-27T03:50:19;2.17;;;0.80;;
6947;SDS011;3513;47.664;9.162;2022-09-27T03:52:45;4.30;;;0.93;;
6947;SDS011;3513;47.664;9.162;2022-09-27T03:55:11;3.20;;;1.83;;
6947;SDS011;3513;47.664;9.162;2022-09-27T03:57:37;2.80;;;0.93;;
6947;SDS011;3513;47.664;9.162;2022-09-27T04:00:03;2.90;;;1.00;;
6947;SDS011;3513;47.664;9.162;2022-09-27T04:02:30;4.60;;;1.00;;
6947;SDS011;3513;47.664;9.162;2022-09-27T04:04:55;4.13;;;1.00;;
6947;SDS011;3513;47.664;9.162;2022-09-27T04:07:21;2.50;;;1.20;;
6947;SDS011;3513;47.664;9.162;2022-09-27T04:09:47;2.20;;;0.80;;
6947;SDS011;3513;47.664;9.162;2022-09-27T04:12:13;4.63;;;1.10;;
6947;SDS011;3513;47.664;9.162;2022-09-27T04:14:39;3.80;;;1.50;;
6947;SDS011;3513;47.664;9.162;2022-09-27T04:17:05;5.67;;;0.90;;
6947;SDS011;3513;47.664;9.162;2022-09-27T04:19:31;11.73;;;1.27;;
6947;SDS011;3513;47.664;9.162;2022-09-27T04:21:56;6.43;;;1.40;;
6947;SDS011;3513;47.664;9.162;2022-09-27T04:24:22;3.60;;;1.23;;
6947;SDS011;3513;47.664;9.162;2022-09-27T04:26:49;6.13;;;1.33;;
6947;SDS011;3513;47.664;9.162;2022-09-27T04:29:15;2.40;;;1.97;;
6947;SDS011;3513;47.664;9.162;2022-09-27T04:31:41;2.97;;;1.10;;
6947;SDS011;3513;47.664;9.162;2022-09-27T04:34:08;2.87;;;1.10;;
6947;SDS011;3513;47.664;9.162;2022-09-27T04:36:34;5.77;;;1.30;;
6947;SDS011;3513;47.664;9.162;2022-09-27T04:39:01;1.53;;;0.80;;
6947;SDS011;3513;47.664;9.162;2022-09-27T04:41:28;2.20;;;0.93;;
6947;SDS011;3513;47.664;9.162;2022-09-27T04:43:54;2.83;;;0.90;;
6947;SDS011;3513;47.664;9.162;2022-09-27T04:46:21;6.43;;;1.07;;
6947;SDS011;3513;47.664;9.162;2022-09-27T04:48:47;7.23;;;0.93;;
6947;SDS011;3513;47.664;9.162;2022-09-27T04:51:13;4.50;;;1.30;;
6947;SDS011;3513;47.664;9.162;2022-09-27T04:53:44;1.37;;;1.00;;
6947;SDS011;3513;47.664;9.162;2022-09-27T04:56:11;2.83;;;1.23;;
6947;SDS011;3513;47.664;9.162;2022-09-27T04:58:38;4.80;;;1.13;;
6947;SDS011;3513;47.664;9.162;2022-09-27T05:01:04;6.93;;;1.03;;
6947;SDS011;3513;47.664;9.162;2022-09-27T05:03:30;4.00;;;1.30;;
6947;SDS011;3513;47.664;9.162;2022-09-27T05:05:57;2.33;;;1.23;;
6947;SDS011;3513;47.664;9.162;2022-09-27T05:08:23;3.83;;;1.10;;
6947;SDS011;3513;47.664;9.162;2022-09-27T05:10:49;1.97;;;0.80;;
6947;SDS011;3513;47.664;9.162;2022-09-27T05:13:14;9.33;;;1.60;;
6947;SDS011;3513;47.664;9.162;2022-09-27T05:15:41;2.60;;;1.03;;
6947;SDS011;3513;47.664;9.162;2022-09-27T05:18:08;3.50;;;1.23;;
6947;SDS011;3513;47.664;9.162;2022-09-27T05:20:34;4.10;;;1.60;;
6947;SDS011;3513;47.664;9.162;2022-09-27T05:23:00;7.70;;;1.23;;
6947;SDS011;3513;47.664;9.162;2022-09-27T05:25:28;4.20;;;1.30;;
6947;SDS011;3513;47.664;9.162;2022-09-27T05:27:55;2.63;;;1.37;;
6947;SDS011;3513;47.664;9.162;2022-09-27T05:30:22;5.63;;;1.10;;
6947;SDS011;3513;47.664;9.162;2022-09-27T05:32:48;4.70;;;1.50;;
6947;SDS011;3513;47.664;9.162;2022-09-27T05:35:15;9.00;;;1.40;;
6947;SDS011;3513;47.664;9.162;2022-09-27T05:37:43;6.20;;;1.77;;
6947;SDS011;3513;47.664;9.162;2022-09-27T05:40:15;6.13;;;1.30;;
6947;SDS011;3513;47.664;9.162;2022-09-27T05:42:41;2.23;;;1.17;;
6947;SDS011;3513;47.664;9.162;2022-09-27T05:45:07;2.40;;;1.00;;
6947;SDS011;3513;47.664;9.162;2022-09-27T05:47:33;8.43;;;1.70;;
6947;SDS011;3513;47.664;9.162;2022-09-27T05:49:58;6.20;;;1.47;;
6947;SDS011;3513;47.664;9.162;2022-09-27T05:52:24;3.63;;;1.40;;
6947;SDS011;3513;47.664;9.162;2022-09-27T05:54:50;10.17;;;1.80;;
6947;SDS011;3513;47.664;9.162;2022-09-27T05:57:16;2.50;;;1.17;;
6947;SDS011;3513;47.664;9.162;2022-09-27T05:59:41;5.70;;;1.90;;
6947;SDS011;3513;47.664;9.162;2022-09-27T06:02:09;5.00;;;1.63;;
6947;SDS011;3513;47.664;9.162;2022-09-27T06:04:35;10.97;;;1.57;;
6947;SDS011;3513;47.664;9.162;2022-09-27T06:07:01;4.30;;;1.40;;
6947;SDS011;3513;47.664;9.162;2022-09-27T06:09:27;4.90;;;1.27;;
6947;SDS011;3513;47.664;9.162;2022-09-27T06:11:53;10.57;;;1.40;;
6947;SDS011;3513;47.664;9.162;2022-09-27T06:14:18;2.50;;;1.67;;
6947;SDS011;3513;47.664;9.162;2022-09-27T06:16:44;8.33;;;1.60;;
6947;SDS011;3513;47.664;9.162;2022-09-27T06:19:10;3.00;;;1.53;;
6947;SDS011;3513;47.664;9.162;2022-09-27T06:21:36;24.97;;;1.77;;
6947;SDS011;3513;47.664;9.162;2022-09-27T06:24:01;6.67;;;1.70;;
6947;SDS011;3513;47.664;9.162;2022-09-27T06:26:29;4.87;;;1.47;;
6947;SDS011;3513;47.664;9.162;2022-09-27T06:28:55;9.53;;;2.00;;
6947;SDS011;3513;47.664;9.162;2022-09-27T06:31:21;7.93;;;1.33;;
6947;SDS011;3513;47.664;9.162;2022-09-27T06:33:47;3.50;;;0.97;;
6947;SDS011;3513;47.664;9.162;2022-09-27T06:36:13;3.73;;;1.23;;
6947;SDS011;3513;47.664;9.162;2022-09-27T06:38:39;6.00;;;1.30;;
6947;SDS011;3513;47.664;9.162;2022-09-27T06:41:05;3.73;;;1.27;;
6947;SDS011;3513;47.664;9.162;2022-09-27T06:43:31;8.93;;;1.70;;
6947;SDS011;3513;47.664;9.162;2022-09-27T06:46:01;3.07;;;1.27;;
6947;SDS011;3513;47.664;9.162;2022-09-27T06:48:31;5.20;;;1.80;;
6947;SDS011;3513;47.664;9.162;2022-09-27T06:50:57;6.03;;;1.67;;
6947;SDS011;3513;47.664;9.162;2022-09-27T06:53:24;3.63;;;0.80;;
6947;SDS011;3513;47.664;9.162;2022-09-27T06:55:50;11.23;;;1.77;;
6947;SDS011;3513;47.664;9.162;2022-09-27T06:58:16;7.60;;;2.23;;
6947;SDS011;3513;47.664;9.162;2022-09-27T07:01:01;15.23;;;2.07;;
6947;SDS011;3513;47.664;9.162;2022-09-27T07:03:27;5.53;;;1.63;;
6947;SDS011;3513;47.664;9.162;2022-09-27T07:06:00;8.63;;;2.23;;
6947;SDS011;3513;47.664;9.162;2022-09-27T07:08:27;8.23;;;1.70;;
6947;SDS011;3513;47.664;9.162;2022-09-27T07:10:54;2.60;;;1.33;;
6947;SDS011;3513;47.664;9.162;2022-09-27T07:13:25;5.00;;;1.37;;
6947;SDS011;3513;47.664;9.162;2022-09-27T07:15:56;4.13;;;1.37;;
6947;SDS011;3513;47.664;9.162;2022-09-27T07:18:22;4.20;;;1.63;;
6947;SDS011;3513;47.664;9.162;2022-09-27T07:20:48;6.40;;;1.50;;
6947;SDS011;3513;47.664;9.162;2022-09-27T07:23:15;2.60;;;1.57;;
6947;SDS011;3513;47.664;9.162;2022-09-27T07:25:41;11.30;;;1.70;;
6947;SDS011;3513;47.664;9.162;2022-09-27T07:28:15;6.93;;;1.60;;
6947;SDS011;3513;47.664;9.162;2022-09-27T07:30:42;5.10;;;1.23;;
6947;SDS011;3513;47.664;9.162;2022-09-27T07:33:09;6.90;;;2.33;;
6947;SDS011;3513;47.664;9.162;2022-09-27T07:35:37;4.73;;;1.80;;
6947;SDS011;3513;47.664;9.162;2022-09-27T07:38:08;3.87;;;1.43;;
6947;SDS011;3513;47.664;9.162;2022-09-27T07:40:37;7.87;;;2.10;;
6947;SDS011;3513;47.664;9.162;2022-09-27T07:43:03;5.23;;;1.33;;
6947;SDS011;3513;47.664;9.162;2022-09-27T07:45:29;6.73;;;1.70;;
6947;SDS011;3513;47.664;9.162;2022-09-27T07:47:55;4.40;;;1.80;;
6947;SDS011;3513;47.664;9.162;2022-09-27T07:50:21;4.83;;;1.90;;
6947;SDS011;3513;47.664;9.162;2022-09-27T07:52:47;3.00;;;2.17;;
6947;SDS011;3513;47.664;9.162;2022-09-27T07:55:15;8.97;;;1.70;;
6947;SDS011;3513;47.664;9.162;2022-09-27T07:57:41;7.10;;;2.17;;
6947;SDS011;3513;47.664;9.162;2022-09-27T08:00:10;5.47;;;2.13;;
6947;SDS011;3513;47.664;9.162;2022-09-27T08:02:37;5.40;;;1.50;;
6947;SDS011;3513;47.664;9.162;2022-09-27T08:05:03;2.60;;;1.30;;
6947;SDS011;3513;47.664;9.162;2022-09-27T08:07:29;3.27;;;1.73;;
6947;SDS011;3513;47.664;9.162;2022-09-27T08:09:56;3.33;;;1.50;;
6947;SDS011;3513;47.664;9.162;2022-09-27T08:12:22;3.50;;;1.40;;
6947;SDS011;3513;47.664;9.162;2022-09-27T08:14:48;1.53;;;0.80;;
6947;SDS011;3513;47.664;9.162;2022-09-27T08:17:14;3.37;;;1.37;;
6947;SDS011;3513;47.664;9.162;2022-09-27T08:19:41;1.93;;;0.70;;
6947;SDS011;3513;47.664;9.162;2022-09-27T08:22:09;2.50;;;1.00;;
6947;SDS011;3513;47.664;9.162;2022-09-27T08:24:38;2.30;;;0.90;;
6947;SDS011;3513;47.664;9.162;2022-09-27T08:27:06;1.20;;;1.00;;
6947;SDS011;3513;47.664;9.162;2022-09-27T08:29:35;2.77;;;1.30;;
6947;SDS011;3513;47.664;9.162;2022-09-27T08:32:01;1.10;;;1.00;;
6947;SDS011;3513;47.664;9.162;2022-09-27T08:34:27;0.90;;;0.63;;
6947;SDS011;3513;47.664;9.162;2022-09-27T08:36:54;1.87;;;0.70;;
6947;SDS011;3513;47.664;9.162;2022-09-27T08:39:20;2.87;;;0.80;;
6947;SDS011;3513;47.664;9.162;2022-09-27T08:44:39;2.80;;;1.10;;
6947;SDS011;3513;47.664;9.162;2022-09-27T08:52:39;5.90;;;1.67;;
6947;SDS011;3513;47.664;9.162;2022-09-27T08:55:16;7.13;;;1.53;;
6947;SDS011;3513;47.664;9.162;2022-09-27T08:57:53;5.60;;;1.17;;
6947;SDS011;3513;47.664;9.162;2022-09-27T09:00:21;4.13;;;1.70;;
6947;SDS011;3513;47.664;9.162;2022-09-27T09:02:47;6.90;;;1.77;;
6947;SDS011;3513;47.664;9.162;2022-09-27T09:05:18;4.00;;;1.37;;
6947;SDS011;3513;47.664;9.162;2022-09-27T09:11:17;1.53;;;1.43;;
6947;SDS011;3513;47.664;9.162;2022-09-27T09:17:19;9.83;;;1.43;;
6947;SDS011;3513;47.664;9.162;2022-09-27T09:20:11;10.90;;;1.60;;
6947;SDS011;3513;47.664;9.162;2022-09-27T09:22:49;9.10;;;1.83;;
6947;SDS011;3513;47.664;9.162;2022-09-27T09:33:45;6.70;;;1.60;;
6947;SDS011;3513;47.664;9.162;2022-09-27T09:39:02;7.17;;;2.30;;
6947;SDS011;3513;47.664;9.162;2022-09-27T09:41:40;6.90;;;1.87;;
6947;SDS011;3513;47.664;9.162;2022-09-27T09:44:17;4.17;;;1.43;;
6947;SDS011;3513;47.664;9.162;2022-09-27T09:46:54;7.00;;;1.77;;
6947;SDS011;3513;47.664;9.162;2022-09-27T09:49:34;11.00;;;1.50;;
6947;SDS011;3513;47.664;9.162;2022-09-27T09:52:10;5.47;;;1.30;;
6947;SDS011;3513;47.664;9.162;2022-09-27T09:54:50;11.37;;;1.70;;
6947;SDS011;3513;47.664;9.162;2022-09-27T09:57:23;2.80;;;1.30;;
6947;SDS011;3513;47.664;9.162;2022-09-27T10:00:02;2.80;;;1.43;;
6947;SDS011;3513;47.664;9.162;2022-09-27T10:02:38;6.37;;;1.67;;
6947;SDS011;3513;47.664;9.162;2022-09-27T10:05:06;6.90;;;1.70;;
6947;SDS011;3513;47.664;9.162;2022-09-27T10:07:37;5.13;;;1.50;;
6947;SDS011;3513;47.664;9.162;2022-09-27T10:10:03;2.33;;;1.30;;
6947;SDS011;3513;47.664;9.162;2022-09-27T10:12:31;7.90;;;1.50;;
6947;SDS011;3513;47.664;9.162;2022-09-27T10:14:57;2.80;;;1.53;;
6947;SDS011;3513;47.664;9.162;2022-09-27T10:17:36;6.13;;;1.67;;
6947;SDS011;3513;47.664;9.162;2022-09-27T10:20:04;11.63;;;2.00;;
6947;SDS011;3513;47.664;9.162;2022-09-27T10:22:37;13.30;;;2.63;;
6947;SDS011;3513;47.664;9.162;2022-09-27T10:25:09;15.77;;;2.60;;
6947;SDS011;3513;47.664;9.162;2022-09-27T10:30:03;10.57;;;2.50;;
6947;SDS011;3513;47.664;9.162;2022-09-27T10:32:30;6.77;;;1.90;;
6947;SDS011;3513;47.664;9.162;2022-09-27T10:37:44;5.30;;;2.07;;
6947;SDS011;3513;47.664;9.162;2022-09-27T10:40:23;3.67;;;1.37;;
6947;SDS011;3513;47.664;9.162;2022-09-27T10:42:54;17.87;;;1.90;;
6947;SDS011;3513;47.664;9.162;2022-09-27T10:47:53;5.60;;;2.03;;
6947;SDS011;3513;47.664;9.162;2022-09-27T10:50:22;6.73;;;1.80;;
6947;SDS011;3513;47.664;9.162;2022-09-27T10:53:03;4.37;;;1.20;;
6947;SDS011;3513;47.664;9.162;2022-09-27T10:55:38;5.83;;;1.83;;
6947;SDS011;3513;47.664;9.162;2022-09-27T10:58:06;2.93;;;1.43;;
6947;SDS011;3513;47.664;9.162;2022-09-27T11:01:01;6.73;;;1.60;;
6947;SDS011;3513;47.664;9.162;2022-09-27T11:03:31;3.90;;;1.70;;
6947;SDS011;3513;47.664;9.162;2022-09-27T11:06:05;2.70;;;1.27;;
6947;SDS011;3513;47.664;9.162;2022-09-27T11:08:43;7.40;;;1.30;;
6947;SDS011;3513;47.664;9.162;2022-09-27T11:13:38;3.10;;;1.10;;
6947;SDS011;3513;47.664;9.162;2022-09-27T11:27:08;3.87;;;0.80;;
6947;SDS011;3513;47.664;9.162;2022-09-27T11:32:39;4.80;;;0.90;;
6947;SDS011;3513;47.664;9.162;2022-09-27T11:38:30;9.63;;;0.60;;
6947;SDS011;3513;47.664;9.162;2022-09-27T11:41:06;4.23;;;1.17;;
6947;SDS011;3513;47.664;9.162;2022-09-27T11:46:29;1.57;;;0.70;;
6947;SDS011;3513;47.664;9.162;2022-09-27T11:57:32;0.93;;;0.60;;
6947;SDS011;3513;47.664;9.162;2022-09-27T12:11:14;2.80;;;0.80;;
6947;SDS011;3513;47.664;9.162;2022-09-27T12:13:54;2.53;;;0.93;;
6947;SDS011;3513;47.664;9.162;2022-09-27T12:16:51;2.00;;;0.90;;
6947;SDS011;3513;47.664;9.162;2022-09-27T12:19:23;2.90;;;0.70;;
6947;SDS011;3513;47.664;9.162;2022-09-27T12:21:56;16.03;;;1.50;;
6947;SDS011;3513;47.664;9.162;2022-09-27T12:24:25;1.07;;;0.90;;
6947;SDS011;3513;47.664;9.162;2022-09-27T12:26:57;1.43;;;1.03;;
6947;SDS011;3513;47.664;9.162;2022-09-27T12:29:31;1.70;;;1.03;;
6947;SDS011;3513;47.664;9.162;2022-09-27T12:34:53;2.80;;;0.83;;
6947;SDS011;3513;47.664;9.162;2022-09-27T12:37:43;1.10;;;0.67;;
6947;SDS011;3513;47.664;9.162;2022-09-27T12:40:21;2.20;;;0.90;;
6947;SDS011;3513;47.664;9.162;2022-09-27T12:48:12;1.83;;;0.80;;
6947;SDS011;3513;47.664;9.162;2022-09-27T12:50:54;1.73;;;0.73;;
6947;SDS011;3513;47.664;9.162;2022-09-27T12:53:46;1.93;;;1.03;;
6947;SDS011;3513;47.664;9.162;2022-09-27T13:05:03;1.70;;;0.87;;
6947;SDS011;3513;47.664;9.162;2022-09-27T13:10:34;3.57;;;1.07;;
6947;SDS011;3513;47.664;9.162;2022-09-27T13:13:02;5.50;;;0.97;;
6947;SDS011;3513;47.664;9.162;2022-09-27T13:15:33;4.13;;;1.43;;
6947;SDS011;3513;47.664;9.162;2022-09-27T13:18:01;3.80;;;1.00;;
6947;SDS011;3513;47.664;9.162;2022-09-27T13:23:03;3.97;;;0.87;;
6947;SDS011;3513;47.664;9.162;2022-09-27T13:31:07;6.93;;;1.10;;
6947;SDS011;3513;47.664;9.162;2022-09-27T13:42:11;2.50;;;1.20;;
6947;SDS011;3513;47.664;9.162;2022-09-27T13:47:31;2.30;;;0.80;;
6947;SDS011;3513;47.664;9.162;2022-09-27T13:50:25;1.60;;;0.70;;
6947;SDS011;3513;47.664;9.162;2022-09-27T13:56:00;2.87;;;0.90;;
6947;SDS011;3513;47.664;9.162;2022-09-27T14:01:35;5.00;;;1.00;;
6947;SDS011;3513;47.664;9.162;2022-09-27T14:06:56;2.43;;;1.00;;
6947;SDS011;3513;47.664;9.162;2022-09-27T14:09:27;1.57;;;1.00;;
6947;SDS011;3513;47.664;9.162;2022-09-27T14:11:58;12.37;;;1.30;;
6947;SDS011;3513;47.664;9.162;2022-09-27T14:14:28;0.80;;;0.67;;
6947;SDS011;3513;47.664;9.162;2022-09-27T14:17:00;1.23;;;0.80;;
6947;SDS011;3513;47.664;9.162;2022-09-27T14:19:26;5.33;;;0.90;;
6947;SDS011;3513;47.664;9.162;2022-09-27T14:22:09;3.93;;;1.23;;
6947;SDS011;3513;47.664;9.162;2022-09-27T14:29:37;2.40;;;1.00;;
6947;SDS011;3513;47.664;9.162;2022-09-27T14:32:11;2.47;;;1.37;;
6947;SDS011;3513;47.664;9.162;2022-09-27T14:34:38;7.23;;;1.17;;
6947;SDS011;3513;47.664;9.162;2022-09-27T14:37:04;5.33;;;1.17;;
6947;SDS011;3513;47.664;9.162;2022-09-27T14:39:54;9.83;;;1.10;;
6947;SDS011;3513;47.664;9.162;2022-09-27T14:42:31;2.70;;;0.80;;
6947;SDS011;3513;47.664;9.162;2022-09-27T14:45:06;3.47;;;0.73;;
6947;SDS011;3513;47.664;9.162;2022-09-27T14:47:50;1.50;;;0.77;;
6947;SDS011;3513;47.664;9.162;2022-09-27T14:50:21;3.33;;;0.67;;
6947;SDS011;3513;47.664;9.162;2022-09-27T14:52:49;2.50;;;0.80;;
6947;SDS011;3513;47.664;9.162;2022-09-27T14:55:22;1.03;;;0.80;;
6947;SDS011;3513;47.664;9.162;2022-09-27T14:57:51;2.20;;;0.97;;
6947;SDS011;3513;47.664;9.162;2022-09-27T15:00:19;1.13;;;0.90;;
6947;SDS011;3513;47.664;9.162;2022-09-27T15:02:57;2.87;;;0.90;;
6947;SDS011;3513;47.664;9.162;2022-09-27T15:05:28;1.23;;;0.93;;
6947;SDS011;3513;47.664;9.162;2022-09-27T15:07:57;3.27;;;1.37;;
6947;SDS011;3513;47.664;9.162;2022-09-27T15:10:26;3.67;;;1.37;;
6947;SDS011;3513;47.664;9.162;2022-09-27T15:12:55;3.83;;;1.30;;
6947;SDS011;3513;47.664;9.162;2022-09-27T15:15:26;2.70;;;1.10;;
6947;SDS011;3513;47.664;9.162;2022-09-27T15:18:00;4.20;;;1.50;;
6947;SDS011;3513;47.664;9.162;2022-09-27T15:20:28;2.00;;;1.10;;
6947;SDS011;3513;47.664;9.162;2022-09-27T15:22:57;3.27;;;1.07;;
6947;SDS011;3513;47.664;9.162;2022-09-27T15:25:38;1.47;;;0.97;;
6947;SDS011;3513;47.664;9.162;2022-09-27T15:28:13;1.23;;;0.80;;
6947;SDS011;3513;47.664;9.162;2022-09-27T15:30:45;2.90;;;1.23;;
6947;SDS011;3513;47.664;9.162;2022-09-27T15:33:24;3.07;;;0.90;;
6947;SDS011;3513;47.664;9.162;2022-09-27T15:35:59;1.43;;;0.90;;
6947;SDS011;3513;47.664;9.162;2022-09-27T15:43:38;0.60;;;0.60;;
6947;SDS011;3513;47.664;9.162;2022-09-27T15:46:25;3.27;;;0.70;;
6947;SDS011;3513;47.664;9.162;2022-09-27T15:51:41;1.30;;;0.60;;
6947;SDS011;3513;47.664;9.162;2022-09-27T15:54:08;0.70;;;0.60;;
6947;SDS011;3513;47.664;9.162;2022-09-27T15:56:33;1.43;;;0.60;;
6947;SDS011;3513;47.664;9.162;2022-09-27T15:58:59;1.50;;;0.60;;
6947;SDS011;3513;47.664;9.162;2022-09-27T16:01:25;1.20;;;0.70;;
6947;SDS011;3513;47.664;9.162;2022-09-27T16:03:51;0.80;;;0.73;;
6947;SDS011;3513;47.664;9.162;2022-09-27T16:06:17;0.90;;;0.90;;
6947;SDS011;3513;47.664;9.162;2022-09-27T16:08:43;1.70;;;0.70;;
6947;SDS011;3513;47.664;9.162;2022-09-27T16:11:11;1.77;;;0.80;;
6947;SDS011;3513;47.664;9.162;2022-09-27T16:13:38;5.57;;;1.70;;
6947;SDS011;3513;47.664;9.162;2022-09-27T16:16:04;3.60;;;1.53;;
6947;SDS011;3513;47.664;9.162;2022-09-27T16:18:30;1.23;;;0.90;;
6947;SDS011;3513;47.664;9.162;2022-09-27T16:20:57;1.97;;;1.00;;
6947;SDS011;3513;47.664;9.162;2022-09-27T16:23:23;0.90;;;0.70;;
6947;SDS011;3513;47.664;9.162;2022-09-27T16:25:50;1.27;;;1.13;;
6947;SDS011;3513;47.664;9.162;2022-09-27T16:28:17;0.90;;;0.90;;
6947;SDS011;3513;47.664;9.162;2022-09-27T16:30:43;2.37;;;1.47;;
6947;SDS011;3513;47.664;9.162;2022-09-27T16:33:09;2.50;;;1.37;;
6947;SDS011;3513;47.664;9.162;2022-09-27T16:35:37;4.53;;;1.00;;
6947;SDS011;3513;47.664;9.162;2022-09-27T16:38:05;2.00;;;0.77;;
6947;SDS011;3513;47.664;9.162;2022-09-27T16:40:31;1.63;;;0.87;;
6947;SDS011;3513;47.664;9.162;2022-09-27T16:42:56;2.90;;;0.70;;
6947;SDS011;3513;47.664;9.162;2022-09-27T16:45:22;2.30;;;1.00;;
6947;SDS011;3513;47.664;9.162;2022-09-27T16:47:50;1.10;;;0.80;;
6947;SDS011;3513;47.664;9.162;2022-09-27T16:50:16;0.80;;;0.70;;
6947;SDS011;3513;47.664;9.162;2022-09-27T16:53:00;2.37;;;1.27;;
6947;SDS011;3513;47.664;9.162;2022-09-27T16:55:26;1.30;;;1.20;;
6947;SDS011;3513;47.664;9.162;2022-09-27T16:57:53;6.80;;;0.97;;
6947;SDS011;3513;47.664;9.162;2022-09-27T17:00:21;6.10;;;2.67;;
6947;SDS011;3513;47.664;9.162;2022-09-27T17:02:47;1.43;;;1.33;;
6947;SDS011;3513;47.664;9.162;2022-09-27T17:05:13;2.30;;;1.43;;
6947;SDS011;3513;47.664;9.162;2022-09-27T17:07:39;4.67;;;1.20;;
6947;SDS011;3513;47.664;9.162;2022-09-27T17:10:05;3.33;;;1.10;;
6947;SDS011;3513;47.664;9.162;2022-09-27T17:12:32;2.60;;;1.30;;
6947;SDS011;3513;47.664;9.162;2022-09-27T17:14:58;2.90;;;1.03;;
6947;SDS011;3513;47.664;9.162;2022-09-27T17:17:24;1.00;;;1.00;;
6947;SDS011;3513;47.664;9.162;2022-09-27T17:19:50;2.47;;;1.30;;
6947;SDS011;3513;47.664;9.162;2022-09-27T17:22:17;1.73;;;1.10;;
6947;SDS011;3513;47.664;9.162;2022-09-27T17:24:42;1.90;;;1.30;;
6947;SDS011;3513;47.664;9.162;2022-09-27T17:27:08;1.10;;;1.00;;
6947;SDS011;3513;47.664;9.162;2022-09-27T17:29:34;2.30;;;0.93;;
6947;SDS011;3513;47.664;9.162;2022-09-27T17:32:01;1.67;;;0.90;;
6947;SDS011;3513;47.664;9.162;2022-09-27T17:34:27;1.43;;;1.00;;
6947;SDS011;3513;47.664;9.162;2022-09-27T17:36:53;2.90;;;1.00;;
6947;SDS011;3513;47.664;9.162;2022-09-27T17:39:19;4.23;;;0.97;;
6947;SDS011;3513;47.664;9.162;2022-09-27T17:41:49;1.10;;;0.80;;
6947;SDS011;3513;47.664;9.162;2022-09-27T17:44:15;1.73;;;0.70;;
6947;SDS011;3513;47.664;9.162;2022-09-27T17:46:47;0.83;;;0.83;;
6947;SDS011;3513;47.664;9.162;2022-09-27T17:49:33;0.70;;;0.70;;
6947;SDS011;3513;47.664;9.162;2022-09-27T17:52:17;6.77;;;1.20;;
6947;SDS011;3513;47.664;9.162;2022-09-27T17:54:43;4.93;;;1.10;;
6947;SDS011;3513;47.664;9.162;2022-09-27T17:57:09;1.10;;;1.00;;
6947;SDS011;3513;47.664;9.162;2022-09-27T17:59:34;3.00;;;0.80;;
6947;SDS011;3513;47.664;9.162;2022-09-27T18:02:00;0.80;;;0.80;;
6947;SDS011;3513;47.664;9.162;2022-09-27T18:04:25;4.30;;;1.03;;
6947;SDS011;3513;47.664;9.162;2022-09-27T18:06:51;1.20;;;0.90;;
6947;SDS011;3513;47.664;9.162;2022-09-27T18:09:16;1.10;;;0.60;;
6947;SDS011;3513;47.664;9.162;2022-09-27T18:11:43;2.90;;;1.10;;
6947;SDS011;3513;47.664;9.162;2022-09-27T18:14:09;1.63;;;0.70;;
6947;SDS011;3513;47.664;9.162;2022-09-27T18:16:36;2.00;;;1.00;;
6947;SDS011;3513;47.664;9.162;2022-09-27T18:19:05;3.30;;;1.57;;
6947;SDS011;3513;47.664;9.162;2022-09-27T18:21:33;1.00;;;1.00;;
6947;SDS011;3513;47.664;9.162;2022-09-27T18:23:59;6.03;;;1.23;;